createdAt,value
2018-06-24T00:00:33.796Z,16.30
2018-06-24T00:03:02.143Z,16.30
2018-06-24T00:05:30.444Z,16.20
2018-06-24T00:07:58.685Z,16.20
2018-06-24T00:10:26.988Z,16.20
2018-06-24T00:12:55.305Z,16.20
2018-06-24T00:15:23.619Z,16.10
2018-06-24T00:17:51.943Z,16.10
2018-06-24T00:20:20.228Z,16.10
2018-06-24T00:22:48.488Z,16.10
2018-06-24T00:25:16.886Z,16.10
2018-06-24T00:27:45.250Z,16.10
2018-06-24T00:30:13.752Z,16.00
2018-06-24T00:32:42.070Z,16.00
2018-06-24T00:35:10.478Z,15.90
2018-06-24T00:37:38.790Z,15.90
2018-06-24T00:40:07.042Z,15.80
2018-06-24T00:42:35.371Z,15.80
2018-06-24T00:45:03.691Z,15.80
2018-06-24T00:47:31.977Z,15.80
2018-06-24T00:50:00.301Z,15.80
2018-06-24T00:52:28.608Z,15.70
2018-06-24T00:54:57.062Z,15.70
2018-06-24T00:57:25.336Z,15.70
2018-06-24T01:00:05.060Z,15.60
2018-06-24T01:02:33.258Z,15.60
2018-06-24T01:05:02.350Z,15.60
2018-06-24T01:07:30.601Z,15.50
2018-06-24T01:09:58.972Z,15.50
2018-06-24T01:14:55.677Z,15.40
2018-06-24T01:17:23.980Z,15.40
2018-06-24T01:19:54.402Z,15.40
2018-06-24T01:22:22.650Z,15.40
2018-06-24T01:24:51.008Z,15.40
2018-06-24T01:27:19.263Z,15.40
2018-06-24T01:29:47.528Z,15.30
2018-06-24T01:32:15.817Z,15.30
2018-06-24T01:34:44.070Z,15.30
2018-06-24T01:37:12.412Z,15.30
2018-06-24T01:39:40.669Z,15.30
2018-06-24T01:42:08.997Z,15.30
2018-06-24T01:44:37.494Z,15.20
2018-06-24T01:47:05.721Z,15.20
2018-06-24T01:49:34.139Z,15.20
2018-06-24T01:52:02.676Z,15.20
2018-06-24T01:54:31.008Z,15.20
2018-06-24T01:56:59.256Z,15.20
2018-06-24T01:59:27.529Z,15.20
2018-06-24T02:01:55.865Z,15.20
2018-06-24T02:04:24.153Z,15.20
2018-06-24T02:06:52.946Z,15.20
2018-06-24T02:09:21.196Z,15.20
2018-06-24T02:11:49.550Z,15.20
2018-06-24T02:14:17.868Z,15.20
2018-06-24T02:16:46.202Z,15.20
2018-06-24T02:19:15.148Z,15.20
2018-06-24T02:21:43.442Z,15.10
2018-06-24T02:24:11.773Z,15.10
2018-06-24T02:26:40.117Z,15.10
2018-06-24T02:29:08.444Z,15.10
2018-06-24T02:31:36.729Z,15.00
2018-06-24T02:34:04.986Z,15.00
2018-06-24T02:36:33.279Z,15.10
2018-06-24T02:39:01.566Z,15.10
2018-06-24T02:41:29.894Z,15.00
2018-06-24T02:43:58.228Z,15.00
2018-06-24T02:46:26.519Z,15.00
2018-06-24T02:48:54.765Z,15.00
2018-06-24T02:51:23.125Z,15.00
2018-06-24T02:53:51.867Z,15.00
2018-06-24T02:56:20.189Z,15.00
2018-06-24T02:58:49.226Z,15.00
2018-06-24T03:01:17.761Z,15.00
2018-06-24T03:03:46.092Z,15.00
2018-06-24T03:06:14.413Z,14.90
2018-06-24T03:08:42.709Z,14.90
2018-06-24T03:11:10.972Z,14.90
2018-06-24T03:16:07.405Z,14.90
2018-06-24T03:18:35.696Z,14.90
2018-06-24T03:21:03.959Z,14.90
2018-06-24T03:23:32.210Z,14.90
2018-06-24T03:26:00.521Z,14.80
2018-06-24T03:28:28.862Z,14.80
2018-06-24T03:30:57.148Z,14.80
2018-06-24T03:33:25.398Z,14.80
2018-06-24T03:35:53.698Z,14.70
2018-06-24T03:38:21.987Z,14.70
2018-06-24T03:40:50.278Z,14.70
2018-06-24T03:43:18.626Z,14.70
2018-06-24T03:45:46.999Z,14.70
2018-06-24T03:48:15.259Z,14.80
2018-06-24T03:50:43.628Z,14.70
2018-06-24T03:53:11.983Z,14.80
2018-06-24T03:55:40.254Z,14.80
2018-06-24T03:58:08.554Z,14.80
2018-06-24T04:00:36.912Z,14.80
2018-06-24T04:03:05.233Z,14.80
2018-06-24T04:05:33.588Z,14.80
2018-06-24T04:08:02.091Z,14.90
2018-06-24T04:10:30.364Z,14.90
2018-06-24T04:12:58.775Z,14.90
2018-06-24T04:15:27.095Z,14.90
2018-06-24T04:17:56.448Z,14.90
2018-06-24T04:20:24.699Z,15.00
2018-06-24T04:22:52.955Z,15.00
2018-06-24T04:25:21.235Z,15.00
2018-06-24T04:27:49.531Z,15.00
2018-06-24T04:30:17.896Z,15.00
2018-06-24T04:32:46.194Z,15.00
2018-06-24T04:35:14.460Z,15.10
2018-06-24T04:40:10.779Z,15.20
2018-06-24T04:42:39.167Z,15.20
2018-06-24T04:45:07.444Z,15.30
2018-06-24T04:47:35.727Z,15.30
2018-06-24T04:50:04.216Z,15.40
2018-06-24T04:52:32.540Z,15.50
2018-06-24T04:57:30.927Z,15.60
2018-06-24T05:02:27.237Z,15.70
2018-06-24T05:04:55.481Z,15.80
2018-06-24T05:07:23.810Z,15.90
2018-06-24T05:09:52.082Z,15.90
2018-06-24T05:12:20.367Z,16.00
2018-06-24T05:14:48.644Z,16.00
2018-06-24T05:17:16.904Z,16.00
2018-06-24T05:19:45.245Z,16.10
2018-06-24T05:22:13.558Z,16.20
2018-06-24T05:24:41.859Z,16.20
2018-06-24T05:27:10.135Z,16.20
2018-06-24T05:29:38.470Z,16.30
2018-06-24T05:37:03.124Z,16.50
2018-06-24T05:41:59.535Z,16.50
2018-06-24T05:44:27.840Z,16.60
2018-06-24T05:46:56.112Z,16.60
2018-06-24T05:49:24.388Z,16.60
2018-06-24T05:51:52.685Z,16.70
2018-06-24T05:54:21.028Z,16.70
2018-06-24T05:56:49.385Z,16.80
2018-06-24T05:59:17.721Z,16.90
2018-06-24T06:01:45.919Z,16.90
2018-06-24T06:04:14.179Z,16.90
2018-06-24T06:06:42.492Z,17.00
2018-06-24T06:09:12.168Z,17.10
2018-06-24T06:11:40.716Z,17.10
2018-06-24T06:14:10.188Z,17.20
2018-06-24T06:19:06.533Z,17.20
2018-06-24T06:21:34.903Z,17.20
2018-06-24T06:24:03.195Z,17.20
2018-06-24T06:26:31.670Z,17.20
2018-06-24T06:28:59.937Z,17.30
2018-06-24T06:31:28.242Z,17.30
2018-06-24T06:33:56.575Z,17.40
2018-06-24T06:36:24.863Z,17.30
2018-06-24T06:38:53.177Z,17.30
2018-06-24T06:41:21.525Z,17.30
2018-06-24T06:43:49.772Z,17.30
2018-06-24T06:48:46.200Z,17.40
2018-06-24T06:51:14.456Z,17.40
2018-06-24T06:53:42.774Z,17.40
2018-06-24T06:56:12.120Z,17.40
2018-06-24T06:58:40.442Z,17.50
2018-06-24T07:01:08.752Z,17.50
2018-06-24T07:03:37.008Z,17.50
2018-06-24T07:06:05.344Z,17.40
2018-06-24T07:08:33.627Z,17.40
2018-06-24T07:11:01.960Z,17.50
2018-06-24T07:13:33.403Z,17.50
2018-06-24T07:16:01.727Z,17.50
2018-06-24T07:18:30.007Z,17.60
2018-06-24T07:20:58.277Z,17.60
2018-06-24T07:25:54.716Z,17.70
2018-06-24T07:28:23.624Z,17.70
2018-06-24T07:30:51.905Z,17.70
2018-06-24T07:33:20.470Z,17.80
2018-06-24T07:35:48.907Z,17.70
2018-06-24T07:38:17.205Z,17.80
2018-06-24T07:40:45.560Z,17.90
2018-06-24T07:43:13.856Z,17.90
2018-06-24T07:45:42.167Z,18.00
2018-06-24T07:48:10.551Z,18.10
2018-06-24T07:50:38.832Z,18.10
2018-06-24T07:53:07.283Z,18.20
2018-06-24T07:55:35.567Z,18.30
2018-06-24T07:58:03.853Z,18.40
2018-06-24T08:00:32.191Z,18.50
2018-06-24T08:03:00.399Z,18.50
2018-06-24T08:05:28.776Z,18.50
2018-06-24T08:07:57.085Z,18.50
2018-06-24T08:10:25.363Z,18.60
2018-06-24T08:12:53.855Z,18.60
2018-06-24T08:15:22.323Z,18.70
2018-06-24T08:17:50.654Z,18.80
2018-06-24T08:20:19.282Z,18.80
2018-06-24T08:22:47.708Z,18.80
2018-06-24T08:25:16.391Z,18.80
2018-06-24T08:27:44.969Z,18.80
2018-06-24T08:30:13.323Z,18.80
2018-06-24T08:32:41.634Z,18.90
2018-06-24T08:35:09.968Z,19.00
2018-06-24T08:40:07.796Z,19.00
2018-06-24T08:42:36.102Z,19.10
2018-06-24T08:45:04.478Z,19.20
2018-06-24T08:47:32.855Z,19.20
2018-06-24T08:50:01.240Z,19.20
2018-06-24T08:52:29.511Z,19.20
2018-06-24T08:54:57.781Z,19.30
2018-06-24T08:57:26.152Z,19.40
2018-06-24T08:59:54.476Z,19.50
2018-06-24T09:02:22.908Z,19.60
2018-06-24T09:04:51.205Z,19.70
2018-06-24T09:07:19.598Z,19.80
2018-06-24T09:09:47.951Z,19.90
2018-06-24T09:12:16.340Z,20.00
2018-06-24T09:14:44.810Z,20.20
2018-06-24T09:17:13.204Z,20.40
2018-06-24T09:22:10.341Z,20.60
2018-06-24T09:24:38.635Z,20.70
2018-06-24T09:27:07.027Z,20.70
2018-06-24T09:29:35.364Z,20.60
2018-06-24T09:32:03.787Z,20.50
2018-06-24T09:34:32.257Z,20.40
2018-06-24T09:37:00.599Z,20.30
2018-06-24T09:39:29.063Z,20.30
2018-06-24T09:41:57.357Z,20.10
2018-06-24T09:44:25.700Z,20.00
2018-06-24T09:46:54.065Z,19.90
2018-06-24T09:49:22.375Z,19.80
2018-06-24T09:51:50.752Z,19.70
2018-06-24T09:54:20.404Z,19.60
2018-06-24T09:56:49.205Z,19.60
2018-06-24T09:59:18.336Z,19.60
2018-06-24T10:01:46.690Z,19.70
2018-06-24T10:04:15.045Z,19.70
2018-06-24T10:06:43.635Z,19.70
2018-06-24T10:09:12.264Z,19.80
2018-06-24T10:11:40.607Z,19.80
2018-06-24T10:14:09.003Z,19.90
2018-06-24T10:16:37.406Z,20.00
2018-06-24T10:19:05.918Z,20.10
2018-06-24T10:21:34.241Z,20.10
2018-06-24T10:24:02.772Z,20.10
2018-06-24T10:26:31.081Z,20.10
2018-06-24T10:28:59.465Z,20.10
2018-06-24T10:33:56.187Z,20.00
2018-06-24T10:36:24.490Z,20.00
2018-06-24T10:38:52.746Z,20.00
2018-06-24T10:41:21.123Z,20.00
2018-06-24T10:43:49.488Z,20.00
2018-06-24T10:46:17.813Z,20.00
2018-06-24T10:48:46.200Z,20.00
2018-06-24T10:51:14.593Z,20.10
2018-06-24T10:53:42.943Z,20.10
2018-06-24T10:56:11.315Z,20.30
2018-06-24T10:58:39.651Z,20.40
2018-06-24T11:01:08.018Z,20.50
2018-06-24T11:03:36.322Z,20.60
2018-06-24T11:06:05.137Z,20.70
2018-06-24T11:08:33.449Z,20.90
2018-06-24T11:11:01.672Z,20.90
2018-06-24T11:13:29.960Z,20.90
2018-06-24T11:15:58.280Z,21.00
2018-06-24T11:18:26.735Z,21.00
2018-06-24T11:20:55.029Z,21.10
2018-06-24T11:23:23.318Z,21.10
2018-06-24T11:25:51.611Z,21.20
2018-06-24T11:28:19.968Z,21.20
2018-06-24T11:30:48.358Z,21.20
2018-06-24T11:33:16.664Z,21.30
2018-06-24T11:35:45.010Z,21.20
2018-06-24T11:38:13.379Z,21.20
2018-06-24T11:40:41.770Z,21.20
2018-06-24T11:45:38.223Z,21.00
2018-06-24T11:48:06.571Z,20.90
2018-06-24T11:50:34.885Z,21.00
2018-06-24T11:53:03.213Z,21.00
2018-06-24T11:55:31.607Z,21.10
2018-06-24T11:57:59.901Z,21.30
2018-06-24T12:00:28.256Z,21.40
2018-06-24T12:02:56.604Z,21.40
2018-06-24T12:05:24.940Z,21.50
2018-06-24T12:07:53.283Z,21.60
2018-06-24T12:10:21.902Z,21.60
2018-06-24T12:12:50.322Z,21.70
2018-06-24T12:15:18.725Z,21.70
2018-06-24T12:20:15.481Z,21.60
2018-06-24T12:22:43.846Z,21.70
2018-06-24T12:25:12.111Z,21.70
2018-06-24T12:27:40.470Z,21.80
2018-06-24T12:30:09.159Z,21.80
2018-06-24T12:32:37.718Z,21.80
2018-06-24T12:35:06.145Z,21.80
2018-06-24T12:37:34.469Z,21.70
2018-06-24T12:40:02.779Z,21.60
2018-06-24T12:42:31.077Z,21.60
2018-06-24T12:44:59.475Z,21.70
2018-06-24T12:47:27.768Z,21.70
2018-06-24T12:49:56.131Z,21.80
2018-06-24T12:52:24.514Z,21.80
2018-06-24T12:54:53.293Z,21.90
2018-06-24T12:57:21.636Z,21.90
2018-06-24T12:59:50.877Z,21.90
2018-06-24T13:02:18.944Z,21.90
2018-06-24T13:04:47.265Z,21.90
2018-06-24T13:07:15.625Z,22.00
2018-06-24T13:09:43.969Z,22.00
2018-06-24T13:12:12.364Z,22.10
2018-06-24T13:14:40.657Z,22.10
2018-06-24T13:17:09.046Z,22.10
2018-06-24T13:19:37.349Z,22.10
2018-06-24T13:22:05.778Z,22.10
2018-06-24T13:24:34.125Z,22.10
2018-06-24T13:27:02.462Z,22.10
2018-06-24T13:29:30.781Z,22.10
2018-06-24T13:31:59.167Z,22.10
2018-06-24T13:34:27.520Z,22.20
2018-06-24T13:36:56.669Z,22.30
2018-06-24T13:39:25.012Z,22.30
2018-06-24T13:41:53.305Z,22.30
2018-06-24T13:44:22.491Z,22.30
2018-06-24T13:46:50.902Z,22.30
2018-06-24T13:49:19.203Z,22.40
2018-06-24T13:51:47.493Z,22.40
2018-06-24T13:54:15.787Z,22.40
2018-06-24T13:56:44.113Z,22.50
2018-06-24T13:59:12.570Z,22.40
2018-06-24T14:01:41.149Z,22.30
2018-06-24T14:04:09.452Z,22.30
2018-06-24T14:06:37.957Z,22.40
2018-06-24T14:09:08.936Z,22.40
2018-06-24T14:11:37.370Z,22.30
2018-06-24T14:14:06.276Z,22.30
2018-06-24T14:16:34.545Z,22.30
2018-06-24T14:19:03.061Z,22.30
2018-06-24T14:21:31.503Z,22.20
2018-06-24T14:24:00.083Z,22.20
2018-06-24T14:26:28.363Z,22.20
2018-06-24T14:28:56.699Z,22.20
2018-06-24T14:31:24.971Z,22.10
2018-06-24T14:33:53.338Z,22.00
2018-06-24T14:36:21.800Z,22.10
2018-06-24T14:38:50.142Z,22.10
2018-06-24T14:41:18.524Z,22.00
2018-06-24T14:43:46.825Z,22.10
2018-06-24T14:46:15.234Z,22.10
2018-06-24T14:48:43.873Z,22.10
2018-06-24T14:51:12.174Z,22.10
2018-06-24T14:53:40.504Z,22.20
2018-06-24T14:56:09.000Z,22.20
2018-06-24T14:58:37.529Z,22.20
2018-06-24T15:01:06.622Z,22.30
2018-06-24T15:03:35.051Z,22.10
2018-06-24T15:06:03.532Z,22.10
2018-06-24T15:08:32.226Z,22.10
2018-06-24T15:11:00.574Z,22.10
2018-06-24T15:13:28.896Z,22.10
2018-06-24T15:15:57.175Z,22.10
2018-06-24T15:18:25.472Z,22.20
2018-06-24T15:20:53.808Z,22.20
2018-06-24T15:23:22.108Z,22.20
2018-06-24T15:25:50.614Z,22.20
2018-06-24T15:28:19.019Z,22.30
2018-06-24T15:30:47.333Z,22.30
2018-06-24T15:33:15.708Z,22.30
2018-06-24T15:35:44.035Z,22.20
2018-06-24T15:38:12.336Z,22.20
2018-06-24T15:40:42.070Z,22.10
2018-06-24T15:43:10.466Z,22.20
2018-06-24T15:45:39.813Z,22.10
2018-06-24T15:48:08.174Z,22.10
2018-06-24T15:50:36.562Z,22.10
2018-06-24T15:53:05.365Z,22.20
2018-06-24T15:55:33.675Z,22.20
2018-06-24T15:58:01.983Z,22.20
2018-06-24T16:00:30.314Z,22.20
2018-06-24T16:02:58.741Z,22.10
2018-06-24T16:05:27.040Z,22.10
2018-06-24T16:07:55.261Z,22.00
2018-06-24T16:10:23.610Z,21.90
2018-06-24T16:12:51.932Z,21.80
2018-06-24T16:15:20.289Z,21.80
2018-06-24T16:17:48.641Z,21.80
2018-06-24T16:20:16.928Z,21.70
2018-06-24T16:22:45.209Z,21.60
2018-06-24T16:25:13.972Z,21.50
2018-06-24T16:27:42.249Z,21.40
2018-06-24T16:30:10.488Z,21.40
2018-06-24T16:32:38.748Z,21.40
2018-06-24T16:35:06.969Z,21.30
2018-06-24T16:37:35.263Z,21.30
2018-06-24T16:40:03.675Z,21.30
2018-06-24T16:42:31.947Z,21.30
2018-06-24T16:45:00.284Z,21.30
2018-06-24T16:47:28.610Z,21.30
2018-06-24T16:49:56.897Z,21.30
2018-06-24T16:52:25.201Z,21.30
2018-06-24T16:54:53.481Z,21.30
2018-06-24T16:59:49.773Z,21.10
2018-06-24T17:02:18.061Z,21.10
2018-06-24T17:04:46.356Z,21.00
2018-06-24T17:07:14.611Z,21.00
2018-06-24T17:09:42.867Z,20.90
2018-06-24T17:14:39.828Z,20.80
2018-06-24T17:19:36.257Z,20.80
2018-06-24T17:22:04.574Z,20.70
2018-06-24T17:24:32.894Z,20.60
2018-06-24T17:27:01.210Z,20.70
2018-06-24T17:29:29.471Z,20.70
2018-06-24T17:31:57.733Z,20.60
2018-06-24T17:34:26.068Z,20.60
2018-06-24T17:36:54.501Z,20.60
2018-06-24T17:39:23.398Z,20.50
2018-06-24T17:41:51.727Z,20.40
2018-06-24T17:44:20.047Z,20.40
2018-06-24T17:46:48.362Z,20.40
2018-06-24T17:49:16.704Z,20.50
2018-06-24T17:51:44.962Z,20.50
2018-06-24T17:54:13.323Z,20.50
2018-06-24T17:56:41.608Z,20.40
2018-06-24T17:59:10.053Z,20.40
2018-06-24T18:01:38.304Z,20.40
2018-06-24T18:04:06.670Z,20.40
2018-06-24T18:06:34.931Z,20.40
2018-06-24T18:09:03.496Z,20.30
2018-06-24T18:11:31.776Z,20.30
2018-06-24T18:14:00.070Z,20.20
2018-06-24T18:16:28.303Z,20.20
2018-06-24T18:18:56.602Z,20.20
2018-06-24T18:21:24.879Z,20.20
2018-06-24T18:23:53.184Z,20.10
2018-06-24T18:26:21.429Z,20.20
2018-06-24T18:28:49.687Z,20.10
2018-06-24T18:31:18.110Z,20.10
2018-06-24T18:33:46.577Z,20.10
2018-06-24T18:36:14.832Z,20.10
2018-06-24T18:41:11.474Z,20.10
2018-06-24T18:43:39.781Z,20.00
2018-06-24T18:46:10.108Z,20.00
2018-06-24T18:48:38.399Z,20.00
2018-06-24T18:51:06.756Z,20.00
2018-06-24T18:53:35.020Z,19.90
2018-06-24T18:56:03.383Z,19.80
2018-06-24T18:58:31.651Z,19.80
2018-06-24T19:00:59.976Z,19.70
2018-06-24T19:03:28.258Z,19.60
2018-06-24T19:05:56.524Z,19.60
2018-06-24T19:08:24.874Z,19.60
2018-06-24T19:10:53.124Z,19.50
2018-06-24T19:13:21.399Z,19.40
2018-06-24T19:15:49.652Z,19.40
2018-06-24T19:18:17.988Z,19.40
2018-06-24T19:20:46.260Z,19.40
2018-06-24T19:23:14.996Z,19.40
2018-06-24T19:25:43.220Z,19.40
2018-06-24T19:28:11.503Z,19.40
2018-06-24T19:30:39.767Z,19.40
2018-06-24T19:33:08.095Z,19.40
2018-06-24T19:35:36.451Z,19.30
2018-06-24T19:38:04.985Z,19.30
2018-06-24T19:40:33.335Z,19.30
2018-06-24T19:43:01.616Z,19.20
2018-06-24T19:45:30.054Z,19.10
2018-06-24T19:47:58.395Z,19.10
2018-06-24T19:50:26.871Z,19.10
2018-06-24T19:52:55.234Z,19.20
2018-06-24T19:55:23.603Z,19.20
2018-06-24T19:57:51.958Z,19.20
2018-06-24T20:00:20.628Z,19.10
2018-06-24T20:02:48.975Z,19.10
2018-06-24T20:05:17.377Z,19.00
2018-06-24T20:07:45.675Z,19.00
2018-06-24T20:10:14.110Z,19.00
2018-06-24T20:17:38.607Z,18.90
2018-06-24T20:20:08.068Z,18.80
2018-06-24T20:22:36.449Z,18.80
2018-06-24T20:25:05.017Z,18.80
2018-06-24T20:27:33.350Z,18.80
2018-06-24T20:30:01.974Z,18.80
2018-06-24T20:32:30.265Z,18.90
2018-06-24T20:34:58.775Z,18.90
2018-06-24T20:37:27.131Z,18.90
2018-06-24T20:39:55.521Z,18.90
2018-06-24T20:42:24.575Z,18.80
2018-06-24T20:44:52.895Z,18.70
2018-06-24T20:47:21.371Z,18.60
2018-06-24T20:49:49.685Z,18.60
2018-06-24T20:52:18.055Z,18.50
2018-06-24T20:54:46.391Z,18.50
2018-06-24T20:57:14.753Z,18.50
2018-06-24T20:59:43.180Z,18.50
2018-06-24T21:02:11.488Z,18.50
2018-06-24T21:04:39.856Z,18.50
2018-06-24T21:07:08.154Z,18.40
2018-06-24T21:09:36.483Z,18.40
2018-06-24T21:12:05.288Z,18.40
2018-06-24T21:14:33.599Z,18.40
2018-06-24T21:17:01.929Z,18.50
2018-06-24T21:19:30.772Z,18.40
2018-06-24T21:21:59.054Z,18.40
2018-06-24T21:24:34.392Z,18.40
2018-06-24T21:27:02.681Z,18.40
2018-06-24T21:31:59.074Z,18.50
2018-06-24T21:34:27.576Z,18.50
2018-06-24T21:36:56.663Z,18.50
2018-06-24T21:39:25.369Z,18.60
2018-06-24T21:41:53.710Z,18.60
2018-06-24T21:44:22.073Z,18.60
2018-06-24T21:46:50.728Z,18.50
2018-06-24T21:49:19.086Z,18.40
2018-06-24T21:51:47.482Z,18.40
2018-06-24T21:54:16.014Z,18.40
2018-06-24T21:56:44.565Z,18.40
2018-06-24T21:59:12.985Z,18.40
2018-06-24T22:01:41.444Z,18.40
2018-06-24T22:04:09.906Z,18.40
2018-06-24T22:06:38.645Z,18.40
2018-06-24T22:09:10.311Z,18.40
2018-06-24T22:11:40.185Z,18.40
2018-06-24T22:14:09.573Z,18.40
2018-06-24T22:16:38.205Z,18.40
2018-06-24T22:19:06.698Z,18.40
2018-06-24T22:21:35.176Z,18.50
2018-06-24T22:24:03.572Z,18.50
2018-06-24T22:26:31.963Z,18.40
2018-06-24T22:29:00.233Z,18.40
2018-06-24T22:31:28.576Z,18.40
2018-06-24T22:33:56.872Z,18.40
2018-06-24T22:36:25.468Z,18.40
2018-06-24T22:38:53.847Z,18.40
2018-06-24T22:41:22.416Z,18.40
2018-06-24T22:43:50.888Z,18.50
2018-06-24T22:46:19.249Z,18.40
2018-06-24T22:48:48.518Z,18.40
2018-06-24T22:51:16.903Z,18.40
2018-06-24T22:53:45.265Z,18.40
2018-06-24T22:56:13.574Z,18.40
2018-06-24T22:58:42.671Z,18.30
2018-06-24T23:01:10.999Z,18.30
2018-06-24T23:03:39.394Z,18.30
2018-06-24T23:06:07.743Z,18.30
2018-06-24T23:08:36.036Z,18.30
2018-06-24T23:11:04.418Z,18.30
2018-06-24T23:13:32.792Z,18.20
2018-06-24T23:16:01.185Z,18.20
2018-06-24T23:18:29.518Z,18.20
2018-06-24T23:20:57.845Z,18.30
2018-06-24T23:23:26.215Z,18.30
2018-06-24T23:25:54.580Z,18.30
2018-06-24T23:28:23.055Z,18.30
2018-06-24T23:30:51.352Z,18.30
2018-06-24T23:33:19.627Z,18.30
2018-06-24T23:35:49.276Z,18.30
2018-06-24T23:38:17.605Z,18.30
2018-06-24T23:40:46.069Z,18.40
2018-06-24T23:43:14.363Z,18.30
2018-06-24T23:45:42.652Z,18.30
2018-06-24T23:48:10.911Z,18.30
2018-06-24T23:50:39.147Z,18.30
2018-06-24T23:55:35.496Z,18.30
2018-06-24T23:58:03.835Z,18.40
